DAL1887 KJFK-TNCM
Flight info
| Callsign | DAL1887 |
|---|---|
| Flight time | N/A |
| Altitude | 33000 |
| Route | SHIPP Y492 SQUAD/M079F330 DCT DARUX L456 HANCY/N0470F330 L456 THANK DCT SLUGO A638 PJM |
| Aircraft | B739/M-SDE2E3FGHIRWXY/LB1 |
Departure
| Time | 2026-04-30 19:23 |
|---|---|
| Airport | John F. Kennedy International Airport (KJFK) |
Arrival
| Time | N/A |
|---|---|
| Airport | Princess Juliana International Airport (TNCM) |
| Time | Latitude | Longitude | Altitude | Speed | Heading |
|---|---|---|---|---|---|
| 2026-04-30 18:59 | 40.63562 | -73.78015 | 20 ft | 0 kts | 262° |
| 2026-04-30 19:00 | 40.63561 | -73.78027 | 20 ft | 0 kts | 262° |
| 2026-04-30 19:00 | 40.63562 | -73.78015 | 20 ft | 6 kts | 262° |
| 2026-04-30 19:05 | 40.63562 | -73.78014 | 20 ft | 0 kts | 262° |
| 2026-04-30 19:08 | 40.63564 | -73.77998 | 21 ft | 2 kts | 255° |
| 2026-04-30 19:08 | 40.63585 | -73.77970 | 20 ft | 2 kts | 177° |
| 2026-04-30 19:08 | 40.63590 | -73.77970 | 20 ft | 0 kts | 175° |
| 2026-04-30 19:14 | 40.63577 | -73.77959 | 20 ft | 4 kts | 134° |
| 2026-04-30 19:14 | 40.63574 | -73.77917 | 19 ft | 5 kts | 83° |
| 2026-04-30 19:14 | 40.63571 | -73.77864 | 19 ft | 7 kts | 112° |
| 2026-04-30 19:15 | 40.63544 | -73.77801 | 19 ft | 9 kts | 120° |
| 2026-04-30 19:15 | 40.63543 | -73.77679 | 19 ft | 7 kts | 32° |
| 2026-04-30 19:15 | 40.63609 | -73.77628 | 19 ft | 14 kts | 31° |
| 2026-04-30 19:16 | 40.63697 | -73.77560 | 19 ft | 15 kts | 30° |
| 2026-04-30 19:16 | 40.63788 | -73.77494 | 19 ft | 15 kts | 27° |
| 2026-04-30 19:16 | 40.63954 | -73.77359 | 20 ft | 14 kts | 31° |
| 2026-04-30 19:17 | 40.64035 | -73.77294 | 20 ft | 13 kts | 31° |
| 2026-04-30 19:17 | 40.64191 | -73.77175 | 20 ft | 13 kts | 30° |
| 2026-04-30 19:17 | 40.64264 | -73.77115 | 20 ft | 12 kts | 32° |
| 2026-04-30 19:18 | 40.64383 | -73.77020 | 21 ft | 12 kts | 29° |
| 2026-04-30 19:18 | 40.64486 | -73.76988 | 19 ft | 11 kts | 5° |
| 2026-04-30 19:18 | 40.64555 | -73.76952 | 19 ft | 11 kts | 30° |
| 2026-04-30 19:19 | 40.64617 | -73.76903 | 19 ft | 10 kts | 31° |
| 2026-04-30 19:19 | 40.64686 | -73.76849 | 20 ft | 13 kts | 31° |
| 2026-04-30 19:19 | 40.64845 | -73.76725 | 21 ft | 13 kts | 31° |
| 2026-04-30 19:20 | 40.64922 | -73.76665 | 20 ft | 13 kts | 31° |
| 2026-04-30 19:20 | 40.64997 | -73.76605 | 20 ft | 12 kts | 32° |
| 2026-04-30 19:20 | 40.65105 | -73.76500 | 20 ft | 4 kts | 81° |
| 2026-04-30 19:21 | 40.65096 | -73.76466 | 21 ft | 4 kts | 117° |
| 2026-04-30 19:21 | 40.65049 | -73.76366 | 21 ft | 7 kts | 134° |
| 2026-04-30 19:22 | 40.64863 | -73.76479 | 20 ft | 54 kts | 211° |
| 2026-04-30 19:22 | 40.62590 | -73.78269 | 511 ft | 155 kts | 211° |
| 2026-04-30 19:23 | 40.59313 | -73.80678 | 1775 ft | 193 kts | 212° |
| 2026-04-30 19:24 | 40.56767 | -73.82683 | 2309 ft | 232 kts | 213° |
| 2026-04-30 19:24 | 40.55338 | -73.83831 | 2548 ft | 251 kts | 214° |
| 2026-04-30 19:24 | 40.52356 | -73.86467 | 3697 ft | 259 kts | 216° |
| 2026-04-30 19:25 | 40.47809 | -73.90356 | 5811 ft | 266 kts | 201° |
| 2026-04-30 19:26 | 40.44270 | -73.89238 | 7038 ft | 286 kts | 139° |
| 2026-04-30 19:26 | 40.42347 | -73.84621 | 8185 ft | 299 kts | 104° |
| 2026-04-30 19:26 | 40.41912 | -73.81927 | 8753 ft | 305 kts | 102° |
| 2026-04-30 19:27 | 40.41108 | -73.76392 | 9912 ft | 313 kts | 102° |
| 2026-04-30 19:27 | 40.40235 | -73.70581 | 10448 ft | 343 kts | 103° |
| 2026-04-30 19:28 | 40.39747 | -73.67436 | 10606 ft | 361 kts | 103° |
| 2026-04-30 19:28 | 40.38680 | -73.60683 | 11044 ft | 390 kts | 104° |
| 2026-04-30 19:29 | 40.37558 | -73.53630 | 12059 ft | 398 kts | 105° |
| 2026-04-30 19:29 | 40.36993 | -73.50093 | 12592 ft | 402 kts | 105° |
| 2026-04-30 19:30 | 40.35230 | -73.39114 | 13966 ft | 417 kts | 105° |
| 2026-04-30 19:30 | 40.34027 | -73.31647 | 14979 ft | 421 kts | 105° |
| 2026-04-30 19:31 | 40.32490 | -73.24231 | 15854 ft | 421 kts | 118° |
| 2026-04-30 19:31 | 40.31123 | -73.20861 | 16356 ft | 417 kts | 128° |